Time;durP1;ratioP1;P1;durP2;ratioP2;P2;SDS_P1;SDS_P2;PMS_P1;PMS_P2;Temp;Humidity;BMP_temperature;BMP_pressure;BME280_temperature;BME280_humidity;BME280_pressure;Samples;Min_cycle;Max_cycle;Signal;HPM_P1;HPM_P2
2021/06/28 00:00:16;;;;;;;9.00;6.20;;;;;;;21.09;72.07;99016.69;1767789;80;21064;-44
2021/06/28 00:02:42;;;;;;;9.38;6.15;;;;;;;21.09;71.85;99017.47;1768332;80;21546;-44
2021/06/28 00:05:11;;;;;;;7.90;6.50;;;;;;;21.09;71.69;99013.94;1772728;80;21045;-45
2021/06/28 00:07:41;;;;;;;7.20;5.97;;;;;;;21.02;71.60;99017.66;1774275;80;21199;-45
2021/06/28 00:10:10;;;;;;;5.87;5.20;;;;;;;21.00;71.62;99011.05;1774607;80;21118;-45
2021/06/28 00:12:37;;;;;;;6.62;5.50;;;;;;;21.03;71.50;99016.45;1769566;80;20942;-45
2021/06/28 00:15:07;;;;;;;7.08;5.70;;;;;;;21.01;71.33;99020.88;1773350;80;21015;-45
2021/06/28 00:17:34;;;;;;;;;;;;;;;20.91;71.47;99019.97;1772731;80;21644;-45
2021/06/28 00:20:00;;;;;;;8.98;5.47;;;;;;;20.82;71.66;99025.31;1745517;80;20164;-45
2021/06/28 00:22:27;;;;;;;6.80;6.10;;;;;;;20.74;71.97;99028.89;1768324;80;21539;-45
2021/06/28 00:24:53;;;;;;;6.33;5.47;;;;;;;20.76;71.97;99032.59;1769230;80;20984;-44
2021/06/28 00:27:23;;;;;;;6.20;5.55;;;;;;;20.72;72.05;99035.42;1773824;80;21094;-45
2021/06/28 00:29:50;;;;;;;8.25;5.42;;;;;;;20.70;72.10;99035.10;1768789;80;21088;-44
2021/06/28 00:32:16;;;;;;;7.42;5.25;;;;;;;20.66;72.00;99026.16;1764377;80;21041;-44
2021/06/28 00:34:43;;;;;;;7.87;6.08;;;;;;;20.65;71.98;99031.50;1762180;80;21100;-44
2021/06/28 00:37:09;;;;;;;7.17;5.72;;;;;;;20.62;71.91;99035.11;1762628;80;21465;-44
2021/06/28 00:39:36;;;;;;;10.05;5.92;;;;;;;20.56;72.03;99030.58;1769574;80;20954;-44
2021/06/28 00:42:04;;;;;;;5.72;5.20;;;;;;;20.55;72.00;99028.42;1772749;80;21035;-44
2021/06/28 00:44:31;;;;;;;6.15;5.37;;;;;;;20.55;71.90;99024.89;1760706;80;21567;-45
2021/06/28 00:46:58;;;;;;;8.38;5.97;;;;;;;20.55;71.87;99027.05;1762043;80;21566;-44
2021/06/28 00:49:24;;;;;;;8.43;5.80;;;;;;;20.49;71.81;99032.91;1767004;80;21088;-44
2021/06/28 00:51:54;;;;;;;8.38;5.83;;;;;;;20.41;71.97;99029.41;1766485;80;20977;-45
2021/06/28 00:54:20;;;;;;;7.90;4.92;;;;;;;20.33;72.28;99028.20;1769113;80;21040;-44
2021/06/28 00:56:47;;;;;;;8.15;5.30;;;;;;;20.32;72.10;99027.27;1766448;80;21585;-44
2021/06/28 00:59:16;;;;;;;6.72;5.80;;;;;;;20.34;72.07;99023.47;1745676;81;21099;-45
2021/06/28 01:01:43;;;;;;;7.78;5.70;;;;;;;20.30;72.16;99022.20;1768849;80;21048;-44
2021/06/28 01:04:09;;;;;;;7.92;5.78;;;;;;;20.26;72.14;99033.87;1767943;80;20929;-45
2021/06/28 01:06:36;;;;;;;7.45;5.10;;;;;;;20.26;72.09;99032.50;1765817;80;21069;-45
2021/06/28 01:09:05;;;;;;;6.53;5.83;;;;;;;20.26;72.07;99039.38;1759445;80;21040;-45
2021/06/28 01:11:31;;;;;;;10.20;6.25;;;;;;;20.21;71.87;99038.52;1773499;80;21797;-45
2021/06/28 01:13:59;;;;;;;6.42;5.15;;;;;;;20.12;72.07;99035.61;1772867;80;21016;-45
2021/06/28 01:16:26;;;;;;;7.30;5.15;;;;;;;20.08;72.33;99040.44;1750949;80;21786;-45
2021/06/28 01:18:53;;;;;;;8.00;6.00;;;;;;;20.08;72.32;99039.06;1768279;80;20989;-45
2021/06/28 01:21:20;;;;;;;12.63;5.75;;;;;;;20.08;72.12;99034.16;1767275;80;21013;-45
2021/06/28 01:23:47;;;;;;;7.95;5.92;;;;;;;20.00;72.35;99025.28;1770357;80;21836;-44
2021/06/28 01:26:13;;;;;;;6.60;6.00;;;;;;;19.92;72.54;99024.70;1748973;80;20986;-44
2021/06/28 01:28:40;;;;;;;5.47;4.95;;;;;;;19.88;72.66;99026.77;1759568;80;21563;-44
2021/06/28 01:31:10;;;;;;;6.33;5.70;;;;;;;19.88;72.87;99021.86;1773389;80;21059;-44
2021/06/28 01:33:37;;;;;;;8.65;6.35;;;;;;;19.89;72.53;99022.04;1767006;80;21040;-44
2021/06/28 01:36:05;;;;;;;7.65;6.15;;;;;;;19.83;72.59;99030.63;1773480;80;21776;-44
2021/06/28 01:38:33;;;;;;;7.17;5.45;;;;;;;19.79;72.64;99039.57;1758553;80;20989;-44
2021/06/28 01:40:59;;;;;;;9.78;6.33;;;;;;;19.77;72.81;99039.21;1771739;80;21519;-45
2021/06/28 01:43:26;;;;;;;7.08;5.90;;;;;;;19.76;72.68;99032.16;1771329;80;20997;-44
2021/06/28 01:45:53;;;;;;;8.10;6.42;;;;;;;19.72;72.86;99036.97;1769042;81;21004;-44
2021/06/28 01:48:21;;;;;;;7.42;5.42;;;;;;;19.66;72.82;99034.55;1771022;80;21134;-44
2021/06/28 01:50:49;;;;;;;6.92;5.58;;;;;;;19.64;72.95;99032.84;1772304;80;21027;-44
2021/06/28 01:53:15;;;;;;;7.80;5.40;;;;;;;19.65;72.91;99028.90;1772822;80;21391;-44
2021/06/28 01:55:43;;;;;;;6.75;6.05;;;;;;;19.63;72.81;99035.42;1768883;80;21565;-44
2021/06/28 01:58:12;;;;;;;10.25;5.67;;;;;;;19.56;73.03;99031.47;1770388;80;20998;-44
2021/06/28 02:00:47;;;;;;;7.20;5.70;;;;;;;19.53;73.10;99035.83;1772565;80;21086;-44
2021/06/28 02:03:17;;;;;;;6.42;5.83;;;;;;;19.51;73.06;99037.62;1767602;80;20969;-44
2021/06/28 02:05:55;;;;;;;10.90;6.30;;;;;;;19.49;73.03;99048.30;1765192;80;21606;-44
2021/06/28 02:08:24;;;;;;;6.45;5.67;;;;;;;19.44;73.23;99048.80;1769646;80;21515;-44
2021/06/28 02:10:54;;;;;;;6.97;6.28;;;;;;;19.40;73.23;99049.45;1772386;80;21545;-44
2021/06/28 02:13:23;;;;;;;8.23;6.20;;;;;;;19.40;73.12;99053.58;1757461;80;21124;-44
2021/06/28 02:15:53;;;;;;;8.90;6.20;;;;;;;19.38;73.18;99051.84;1771480;80;28326;-44
2021/06/28 02:18:22;;;;;;;7.10;5.83;;;;;;;19.33;73.31;99055.09;1772567;80;20986;-44
2021/06/28 02:20:48;;;;;;;9.23;6.20;;;;;;;19.36;73.36;99058.38;1769817;80;21021;-44
2021/06/28 02:23:34;;;;;;;7.83;5.58;;;;;;;19.41;73.10;99059.84;1773431;80;21460;-44
2021/06/28 02:26:07;;;;;;;8.58;6.12;;;;;;;19.43;73.00;99069.20;1773766;80;21123;-44
2021/06/28 02:28:37;;;;;;;7.35;5.72;;;;;;;19.43;73.02;99065.68;1775902;80;21044;-44
2021/06/28 02:31:06;;;;;;;7.35;5.45;;;;;;;19.40;72.86;99071.44;1772824;80;20917;-44
2021/06/28 02:33:34;;;;;;;7.67;5.75;;;;;;;19.42;72.85;99074.52;1756443;80;21476;-44
2021/06/28 02:36:02;;;;;;;6.65;6.00;;;;;;;19.47;72.88;99078.17;1775411;80;21499;-44
2021/06/28 02:38:28;;;;;;;6.97;6.22;;;;;;;19.48;72.64;99074.23;1772042;80;21121;-44
2021/06/28 02:40:55;;;;;;;7.65;5.72;;;;;;;19.47;72.56;99071.30;1705636;83;21514;-44
2021/06/28 02:43:22;;;;;;;8.33;5.75;;;;;;;19.47;72.72;99071.30;1769356;80;20961;-44
2021/06/28 02:45:49;;;;;;;9.45;5.83;;;;;;;19.43;72.55;99067.83;1766260;80;21514;-44
2021/06/28 02:48:16;;;;;;;6.33;5.47;;;;;;;19.51;72.31;99077.49;1773001;80;21086;-44
2021/06/28 02:50:43;;;;;;;10.93;6.08;;;;;;;19.43;72.54;99080.20;1768497;80;21083;-44
2021/06/28 02:53:09;;;;;;;7.85;5.78;;;;;;;19.35;72.76;99076.06;1767398;80;20992;-44
2021/06/28 02:55:36;;;;;;;7.28;6.17;;;;;;;19.32;72.80;99071.39;1770691;80;21032;-44
2021/06/28 02:58:03;;;;;;;7.85;6.60;;;;;;;19.04;72.80;99030.77;1770783;80;21096;-44
2021/06/28 03:00:30;;;;;;;7.97;6.22;;;;;;;19.29;72.94;99077.75;1770268;80;21072;-44
2021/06/28 03:02:59;;;;;;;10.58;5.87;;;;;;;19.27;73.13;99071.12;1771248;80;21099;-44
2021/06/28 03:05:26;;;;;;;9.18;5.58;;;;;;;19.26;73.10;99074.49;1769392;80;21128;-45
2021/06/28 03:07:54;;;;;;;9.68;5.67;;;;;;;19.29;72.93;99076.98;1773234;80;21163;-45
2021/06/28 03:10:20;;;;;;;7.97;5.80;;;;;;;19.32;72.69;99076.89;1770507;80;21167;-45
2021/06/28 03:12:47;;;;;;;9.53;6.15;;;;;;;19.33;72.73;99074.92;1771663;80;21045;-46
2021/06/28 03:15:16;;;;;;;6.42;5.35;;;;;;;19.34;72.51;99084.72;1766536;80;21127;-46
2021/06/28 03:17:43;;;;;;;9.97;6.07;;;;;;;19.35;72.34;99081.56;1766844;80;21064;-46
2021/06/28 03:20:12;;;;;;;6.62;6.03;;;;;;;19.39;72.18;99089.73;1768305;80;21103;-46
2021/06/28 03:22:40;;;;;;;6.83;6.12;;;;;;;19.41;72.30;99087.34;1744367;80;21084;-46
2021/06/28 03:25:09;;;;;;;7.90;5.65;;;;;;;19.43;72.24;99082.17;1777112;80;21384;-46
2021/06/28 03:27:35;;;;;;;9.38;5.17;;;;;;;19.45;71.94;99081.19;1772819;80;21174;-46
2021/06/28 03:30:08;;;;;;;10.55;6.05;;;;;;;19.47;72.01;99082.30;1770861;80;21041;-46
2021/06/28 03:32:35;;;;;;;6.28;5.40;;;;;;;19.53;71.84;99082.58;1774215;80;20957;-45
2021/06/28 03:35:02;;;;;;;7.78;5.75;;;;;;;19.54;71.86;99085.51;1775392;80;21006;-45
2021/06/28 03:37:28;;;;;;;7.60;5.22;;;;;;;19.56;71.83;99083.09;1779675;80;21079;-45
2021/06/28 03:39:57;;;;;;;10.08;5.70;;;;;;;19.60;71.86;99083.81;1766219;80;20983;-46
2021/06/28 03:42:23;;;;;;;7.03;5.50;;;;;;;19.65;71.50;99089.41;1763523;79;21086;-46
2021/06/28 03:44:50;;;;;;;7.03;5.42;;;;;;;19.63;71.38;99077.45;1766836;80;21135;-46
2021/06/28 03:47:18;;;;;;;9.50;5.60;;;;;;;19.65;71.51;99081.16;1780530;80;21000;-46
2021/06/28 03:49:45;;;;;;;7.72;5.72;;;;;;;19.70;71.22;99084.77;1776679;80;21564;-46
2021/06/28 03:52:12;;;;;;;6.65;5.53;;;;;;;19.74;71.20;99067.59;1762778;80;21799;-47
2021/06/28 03:54:39;;;;;;;6.40;5.15;;;;;;;19.79;71.22;99078.86;1766558;79;20964;-46
2021/06/28 03:57:06;;;;;;;7.10;4.85;;;;;;;19.81;70.99;99082.53;1778114;79;21016;-46
2021/06/28 03:59:34;;;;;;;7.70;5.70;;;;;;;19.80;70.38;99084.51;1730811;82;21025;-46
2021/06/28 04:02:00;;;;;;;9.15;5.30;;;;;;;19.90;70.67;99082.71;1768938;80;21037;-46
2021/06/28 04:04:28;;;;;;;11.63;5.40;;;;;;;19.95;70.53;99084.36;1765595;80;21494;-46
2021/06/28 04:06:54;;;;;;;8.30;5.83;;;;;;;20.01;69.86;99086.59;1775927;79;21005;-45
2021/06/28 04:09:22;;;;;;;7.55;5.12;;;;;;;20.05;69.33;99086.69;1751731;81;21020;-45
2021/06/28 04:11:49;;;;;;;5.58;5.03;;;;;;;20.13;69.67;99090.83;1756881;80;21570;-45
2021/06/28 04:14:16;;;;;;;6.37;5.78;;;;;;;20.14;68.61;99088.23;1701430;83;21097;-45
2021/06/28 04:16:43;;;;;;;5.58;4.95;;;;;;;20.13;68.41;99085.33;1780085;80;21296;-45
2021/06/28 04:19:09;;;;;;;7.55;5.03;;;;;;;20.15;68.81;99087.03;1760140;80;20942;-45
2021/06/28 04:21:36;;;;;;;8.90;5.42;;;;;;;20.21;68.17;99084.55;1768489;80;21519;-45
2021/06/28 04:24:05;;;;;;;5.90;5.10;;;;;;;20.23;68.14;99082.92;1773611;80;21097;-45
2021/06/28 04:26:32;;;;;;;5.35;4.85;;;;;;;20.22;67.87;99085.50;1773587;80;21531;-45
2021/06/28 04:28:59;;;;;;;6.67;4.70;;;;;;;20.18;67.86;99083.44;1766746;80;22068;-45
2021/06/28 04:31:29;;;;;;;5.37;4.87;;;;;;;20.14;67.90;99078.59;1751732;80;21011;-45
2021/06/28 04:33:57;;;;;;;6.10;4.90;;;;;;;20.18;68.07;99079.31;1778902;80;21004;-46
2021/06/28 04:36:24;;;;;;;6.92;5.17;;;;;;;20.21;68.29;99078.44;1770228;80;21072;-46
2021/06/28 04:38:50;;;;;;;6.35;4.62;;;;;;;20.27;68.04;99079.47;1759686;80;21062;-46
2021/06/28 04:41:17;;;;;;;5.20;4.70;;;;;;;20.33;67.91;99081.89;1758636;80;21061;-46
2021/06/28 04:43:43;;;;;;;7.65;4.90;;;;;;;20.42;67.60;99079.14;1767684;80;20889;-46
2021/06/28 04:46:10;;;;;;;5.90;4.80;;;;;;;20.53;67.13;99087.89;1774908;80;21568;-46
2021/06/28 04:48:37;;;;;;;8.75;5.12;;;;;;;20.62;66.85;99079.80;1782641;79;21009;-46
2021/06/28 04:51:04;;;;;;;6.85;4.58;;;;;;;20.67;66.59;99083.41;1782306;80;20997;-46
2021/06/28 04:53:31;;;;;;;5.15;4.33;;;;;;;20.72;66.08;99078.75;1779468;80;21103;-46
2021/06/28 04:55:57;;;;;;;7.55;4.83;;;;;;;20.78;66.11;99075.62;1769045;80;20941;-46
2021/06/28 04:58:24;;;;;;;6.83;4.40;;;;;;;20.89;65.80;99077.48;1779405;80;21100;-46
2021/06/28 05:00:50;;;;;;;6.58;4.70;;;;;;;21.01;64.70;99072.61;1710810;83;21528;-46
2021/06/28 05:03:17;;;;;;;7.45;4.10;;;;;;;21.06;64.55;99084.47;1775537;80;21026;-46
2021/06/28 05:05:44;;;;;;;7.20;4.97;;;;;;;21.10;64.73;99079.66;1781013;79;21184;-46
2021/06/28 05:08:11;;;;;;;5.87;4.12;;;;;;;21.13;64.24;99078.80;1765432;79;21012;-46
2021/06/28 05:10:37;;;;;;;5.00;4.40;;;;;;;21.22;64.23;99079.53;1761096;80;21027;-46
2021/06/28 05:13:04;;;;;;;8.58;4.53;;;;;;;21.33;64.47;99081.39;1769056;80;21127;-46
2021/06/28 05:15:34;;;;;;;5.45;4.37;;;;;;;21.44;64.26;99082.46;1768815;81;21084;-46
2021/06/28 05:17:59;;;;;;;8.80;5.50;;;;;;;21.51;63.87;99081.63;1772618;80;21573;-46
2021/06/28 05:20:26;;;;;;;5.85;4.50;;;;;;;21.62;63.84;99086.83;1780285;80;21032;-46
2021/06/28 05:22:53;;;;;;;6.10;5.08;;;;;;;21.69;62.25;99090.74;1756609;80;21793;-46
2021/06/28 05:25:19;;;;;;;6.12;4.03;;;;;;;21.71;61.53;99087.55;1755217;81;21093;-46
2021/06/28 05:27:46;;;;;;;6.15;4.90;;;;;;;21.70;61.22;99086.78;1762069;81;20961;-46
2021/06/28 05:30:16;;;;;;;6.05;4.62;;;;;;;21.76;61.49;99087.78;1752517;80;21852;-46
2021/06/28 05:32:43;;;;;;;6.42;4.97;;;;;;;21.75;61.48;99091.75;1753206;80;21017;-45
2021/06/28 05:37:13;;;;;;;6.50;4.70;;;;;;;21.74;62.22;99086.05;1791981;79;22704;-45
2021/06/28 05:39:40;;;;;;;5.92;4.58;;;;;;;21.62;62.14;99082.70;1766581;80;21007;-46
2021/06/28 05:42:07;;;;;;;10.63;4.30;;;;;;;21.66;61.98;99085.52;1774663;80;21476;-46
2021/06/28 05:44:34;;;;;;;6.65;4.37;;;;;;;21.73;62.46;99083.76;1757027;81;20972;-46
2021/06/28 05:47:01;;;;;;;5.33;4.60;;;;;;;21.84;61.90;99089.70;1787884;80;21032;-46
2021/06/28 05:49:30;;;;;;;6.58;4.53;;;;;;;21.92;61.80;99082.16;1774085;80;20938;-45
2021/06/28 05:51:58;;;;;;;5.43;4.53;;;;;;;21.99;61.75;99083.93;1791630;80;21009;-45
2021/06/28 05:54:26;;;;;;;5.17;4.47;;;;;;;22.06;61.16;99077.59;1775874;80;21148;-45
2021/06/28 05:56:54;;;;;;;6.33;4.50;;;;;;;22.09;61.24;99080.83;1769736;79;21479;-46
2021/06/28 05:59:21;;;;;;;5.12;4.35;;;;;;;22.10;60.09;99073.33;1781732;79;21027;-45
2021/06/28 06:01:47;;;;;;;4.37;3.87;;;;;;;22.13;60.43;99074.41;1775804;80;21002;-45
2021/06/28 06:04:14;;;;;;;5.55;3.80;;;;;;;22.16;60.22;99074.92;1755372;81;21075;-45
2021/06/28 06:06:42;;;;;;;6.35;4.33;;;;;;;22.24;60.46;99081.75;1774997;79;21172;-45
2021/06/28 06:09:09;;;;;;;4.35;3.72;;;;;;;22.37;60.54;99086.63;1757823;80;21570;-45
2021/06/28 06:11:37;;;;;;;5.08;3.87;;;;;;;22.47;59.43;99082.14;1775321;80;20933;-45
2021/06/28 06:14:04;;;;;;;4.62;4.15;;;;;;;22.56;59.06;99086.22;1787031;80;20964;-45
2021/06/28 06:16:30;;;;;;;6.42;4.33;;;;;;;;;;1774737;80;21560;-45
2021/06/28 06:18:57;;;;;;;8.35;4.33;;;;;;;22.64;58.35;99095.20;1769400;80;21091;-44
2021/06/28 06:21:24;;;;;;;6.78;4.28;;;;;;;22.63;58.36;99097.02;1775647;80;21093;-44
2021/06/28 06:23:51;;;;;;;5.15;3.90;;;;;;;22.60;58.15;99093.17;1765004;80;21098;-45
2021/06/28 06:26:19;;;;;;;5.75;3.90;;;;;;;22.59;58.46;99094.37;1777088;80;21686;-44
2021/06/28 06:28:46;;;;;;;5.00;3.42;;;;;;;22.59;58.80;99104.66;1784069;80;21084;-46
2021/06/28 06:31:13;;;;;;;5.45;3.50;;;;;;;22.59;57.69;99099.91;1779766;80;21204;-45
2021/06/28 06:33:40;;;;;;;5.62;3.52;;;;;;;22.60;57.99;99100.68;1778533;80;21053;-45
2021/06/28 06:36:07;;;;;;;7.08;3.62;;;;;;;22.64;58.14;99106.86;1757866;80;21142;-45
2021/06/28 06:38:34;;;;;;;3.45;3.08;;;;;;;22.70;58.57;99105.08;1743784;82;21031;-45
2021/06/28 06:41:00;;;;;;;6.62;3.72;;;;;;;22.78;58.51;99096.11;1743734;82;21020;-45
2021/06/28 06:43:27;;;;;;;6.42;3.67;;;;;;;22.91;57.95;99101.58;1750002;80;21843;-46
2021/06/28 06:45:54;;;;;;;4.62;3.75;;;;;;;23.01;57.35;99105.19;1775831;80;21021;-45
2021/06/28 06:48:21;;;;;;;4.08;3.65;;;;;;;23.06;57.41;99094.33;1781198;80;21013;-45
2021/06/28 06:50:48;;;;;;;5.33;3.65;;;;;;;23.12;57.10;99103.59;1779727;80;20948;-45
2021/06/28 06:53:14;;;;;;;4.97;3.95;;;;;;;23.17;56.72;99093.95;1758717;81;21042;-45
2021/06/28 06:55:41;;;;;;;4.05;3.75;;;;;;;23.17;56.52;99102.24;1758736;81;21104;-45
2021/06/28 06:58:10;;;;;;;5.97;4.28;;;;;;;23.17;56.51;99101.64;1768653;80;21069;-46
2021/06/28 07:00:41;;;;;;;9.63;4.13;;;;;;;23.21;56.92;99107.03;1765653;80;20898;-46
2021/06/28 07:03:08;;;;;;;7.37;4.00;;;;;;;23.24;55.78;99090.91;1755445;80;21016;-46
2021/06/28 07:05:35;;;;;;;5.47;3.75;;;;;;;23.25;56.37;99106.28;1772966;80;21069;-46
2021/06/28 07:08:03;;;;;;;6.05;4.28;;;;;;;23.28;55.80;99109.55;1760512;80;21890;-45
2021/06/28 07:10:30;;;;;;;6.60;4.05;;;;;;;23.35;56.24;99106.50;1762473;80;21885;-46
2021/06/28 07:12:56;;;;;;;5.90;3.85;;;;;;;23.47;56.25;99104.31;1756994;80;20968;-46
2021/06/28 07:15:23;;;;;;;4.00;3.60;;;;;;;23.61;55.73;99099.63;1768700;80;21070;-46
2021/06/28 07:17:52;;;;;;;4.75;3.85;;;;;;;23.72;54.94;99103.38;1761380;80;21023;-45
2021/06/28 07:20:22;;;;;;;4.05;3.50;;;;;;;23.80;55.68;99099.87;1760037;80;21094;-45
2021/06/28 07:22:53;;;;;;;5.12;3.60;;;;;;;23.91;55.05;99101.45;1782601;80;21073;-45
2021/06/28 07:25:21;;;;;;;4.92;3.80;;;;;;;24.01;54.58;99099.63;1772912;80;21507;-45
2021/06/28 07:27:48;;;;;;;4.17;3.50;;;;;;;24.10;55.06;99100.28;1750098;80;20951;-45
2021/06/28 07:30:18;;;;;;;4.75;3.30;;;;;;;24.18;53.00;99099.56;1757516;80;21049;-46
2021/06/28 07:32:45;;;;;;;3.92;3.20;;;;;;;24.25;53.00;99099.90;1755133;80;21799;-46
2021/06/28 07:35:12;;;;;;;5.67;3.67;;;;;;;24.29;53.32;99101.13;1744122;80;20943;-46
2021/06/28 07:37:39;;;;;;;3.50;3.20;;;;;;;24.31;53.27;99102.81;1763099;80;20929;-46
2021/06/28 07:40:08;;;;;;;4.20;3.47;;;;;;;24.37;54.20;99105.14;1766722;80;20945;-46
2021/06/28 07:42:35;;;;;;;4.70;3.47;;;;;;;24.48;54.32;99104.87;1763481;80;20957;-46
2021/06/28 07:45:03;;;;;;;5.58;3.75;;;;;;;24.61;51.71;99100.56;1750799;80;21188;-45
2021/06/28 07:47:30;;;;;;;5.12;3.40;;;;;;;24.61;51.80;99104.11;1758357;80;20969;-45
2021/06/28 07:49:58;;;;;;;4.70;3.22;;;;;;;24.55;52.47;99117.03;1777715;80;21269;-45
2021/06/28 07:52:26;;;;;;;3.80;2.85;;;;;;;24.54;51.60;99107.19;1752700;80;21030;-45
2021/06/28 07:54:53;;;;;;;4.15;3.40;;;;;;;24.59;52.18;99112.74;1757849;80;21611;-45
2021/06/28 07:57:20;;;;;;;4.12;2.98;;;;;;;24.64;51.71;99112.13;1758954;80;21134;-46
2021/06/28 07:59:47;;;;;;;4.08;3.37;;;;;;;24.71;52.39;99113.20;1701433;84;20970;-46
2021/06/28 08:02:14;;;;;;;4.33;3.40;;;;;;;24.87;52.77;99112.94;1716558;83;21080;-46
2021/06/28 08:04:40;;;;;;;5.30;3.60;;;;;;;25.05;51.96;99113.55;1721985;83;21028;-45
2021/06/28 08:07:07;;;;;;;3.92;3.27;;;;;;;25.13;50.80;99121.70;1709402;83;21034;-46
2021/06/28 08:09:35;;;;;;;4.90;3.40;;;;;;;25.10;51.04;99125.41;1705425;83;21960;-46
2021/06/28 08:12:02;;;;;;;3.47;3.12;;;;;;;25.08;51.46;99130.64;1699425;83;21051;-45
2021/06/28 08:14:29;;;;;;;3.67;3.37;;;;;;;24.99;50.84;99123.09;1718327;82;21089;-45
2021/06/28 08:16:56;;;;;;;4.53;3.50;;;;;;;24.90;52.00;99130.64;1708169;83;21029;-45
2021/06/28 08:19:23;;;;;;;3.77;3.40;;;;;;;24.86;52.30;99128.62;1706246;84;21085;-45
2021/06/28 08:21:51;;;;;;;5.20;3.00;;;;;;;24.83;51.54;99135.09;1721664;83;21138;-45
2021/06/28 08:24:18;;;;;;;8.50;3.05;;;;;;;24.88;51.67;99135.90;1702099;83;20988;-46
2021/06/28 08:26:45;;;;;;;3.45;3.15;;;;;;;24.98;51.32;99140.96;1698639;82;21039;-46
2021/06/28 08:29:12;;;;;;;3.15;2.85;;;;;;;25.17;50.46;99129.27;1723157;83;21522;-46
2021/06/28 08:31:39;;;;;;;4.92;2.95;;;;;;;25.30;50.31;99130.48;1718478;83;21040;-46
2021/06/28 08:34:06;;;;;;;3.67;2.90;;;;;;;25.39;49.67;99138.79;1721438;83;21872;-46
2021/06/28 08:36:34;;;;;;;4.20;3.02;;;;;;;25.50;50.01;99123.81;1717061;82;20930;-46
2021/06/28 08:39:02;;;;;;;4.37;3.17;;;;;;;25.64;49.08;99127.97;1721128;82;21514;-45
2021/06/28 08:41:28;;;;;;;5.40;2.70;;;;;;;25.72;49.78;99136.11;1704898;82;20997;-46
2021/06/28 08:43:55;;;;;;;4.25;3.08;;;;;;;25.74;49.30;99141.37;1712943;83;21551;-45
2021/06/28 08:46:22;;;;;;;3.40;3.08;;;;;;;25.67;49.26;99145.08;1704548;82;21148;-46
2021/06/28 08:48:49;;;;;;;3.72;3.00;;;;;;;25.64;49.19;99143.24;1695143;82;21006;-46
2021/06/28 08:51:16;;;;;;;3.60;3.17;;;;;;;25.61;48.59;99147.70;1698144;82;21001;-46
2021/06/28 08:53:43;;;;;;;4.80;2.72;;;;;;;25.65;49.96;99148.34;1712395;82;21051;-46
2021/06/28 08:56:10;;;;;;;3.92;3.40;;;;;;;25.76;48.33;99145.05;1704516;82;20977;-46
2021/06/28 08:58:37;;;;;;;3.40;3.10;;;;;;;25.90;49.34;99149.97;1688055;82;21479;-45
2021/06/28 09:01:06;;;;;;;3.47;3.17;;;;;;;26.09;48.61;99153.44;1684039;83;21068;-46
2021/06/28 09:03:34;;;;;;;3.95;3.00;;;;;;;26.16;47.64;99155.86;1686896;83;21029;-46
2021/06/28 09:06:14;;;;;;;4.03;3.20;;;;;;;26.19;47.24;99152.91;1701415;82;21010;-46
2021/06/28 09:08:58;;;;;;;5.12;3.30;;;;;;;26.21;48.11;99161.58;1695103;82;20949;-46
2021/06/28 09:11:25;;;;;;;4.62;3.15;;;;;;;26.21;48.52;99162.17;1699667;83;22207;-45
2021/06/28 09:13:54;;;;;;;3.35;2.98;;;;;;;26.24;48.67;99155.07;1702557;82;21912;-45
2021/06/28 09:16:27;;;;;;;5.42;3.20;;;;;;;26.36;47.73;99152.70;1696743;82;21562;-45
2021/06/28 09:19:01;;;;;;;5.37;3.33;;;;;;;26.50;48.71;99158.80;1694948;83;21259;-45
2021/06/28 09:21:33;;;;;;;4.53;3.27;;;;;;;26.47;48.02;99129.18;1737265;80;21539;-45
2021/06/28 09:24:01;;;;;;;3.50;2.92;;;;;;;26.83;47.04;99156.11;1731450;81;21122;-45
2021/06/28 09:26:31;;;;;;;3.30;3.00;;;;;;;26.92;46.76;99167.81;1739772;81;21147;-46
2021/06/28 09:28:59;;;;;;;;;;;;;;;26.93;46.27;99163.80;1752829;80;21032;-45
2021/06/28 09:31:46;;;;;;;3.62;3.05;;;;;;;26.89;46.34;99163.22;1750587;82;20653;-45
2021/06/28 09:34:21;;;;;;;3.40;2.87;;;;;;;26.74;46.22;99163.13;1750421;81;21045;-45
2021/06/28 09:36:54;;;;;;;4.30;2.90;;;;;;;26.74;47.05;99158.96;1747859;80;21127;-45
2021/06/28 09:39:28;;;;;;;4.92;2.90;;;;;;;26.82;46.40;99151.78;1742357;80;21025;-45
2021/06/28 09:42:10;;;;;;;4.05;3.30;;;;;;;26.91;46.33;99165.53;1737680;82;21640;-45
2021/06/28 09:44:51;;;;;;;7.40;3.00;;;;;;;26.92;46.00;99160.09;1750154;82;21550;-45
2021/06/28 09:47:20;;;;;;;4.30;2.90;;;;;;;26.87;46.08;99157.99;1745731;80;20966;-45
2021/06/28 09:50:07;;;;;;;4.67;3.25;;;;;;;26.83;46.90;99158.89;1748408;82;21063;-46
2021/06/28 09:52:42;;;;;;;3.52;2.90;;;;;;;26.85;46.92;99154.87;1709369;83;21056;-45
2021/06/28 09:55:28;;;;;;;4.67;2.77;;;;;;;26.86;46.05;99161.39;1697084;83;21056;-45
2021/06/28 09:58:22;;;;;;;3.75;2.65;;;;;;;26.97;47.10;99171.34;1703276;83;21109;-45
2021/06/28 10:00:49;;;;;;;6.05;3.08;;;;;;;27.07;45.49;99161.67;1704745;83;21089;-45
2021/06/28 10:03:44;;;;;;;4.30;2.55;;;;;;;27.17;45.01;99160.36;1706841;83;21135;-45
2021/06/28 10:08:51;;;;;;;3.58;2.92;;;;;;;27.46;46.49;99160.25;1665652;84;21456;-45
2021/06/28 10:11:23;;;;;;;4.53;2.70;;;;;;;27.66;45.05;99167.34;1749644;82;20953;-45
2021/06/28 10:14:02;;;;;;;4.22;2.95;;;;;;;27.73;44.40;99162.80;1750642;81;21052;-45
2021/06/28 10:16:31;;;;;;;4.33;2.87;;;;;;;27.66;44.81;99164.56;1750290;80;21123;-45
2021/06/28 10:18:59;;;;;;;3.95;2.75;;;;;;;27.52;45.35;99174.45;1748983;82;21038;-45
2021/06/28 10:21:26;;;;;;;4.83;2.60;;;;;;;27.36;44.75;99168.53;1747954;82;21032;-46
2021/06/28 10:23:53;;;;;;;3.85;2.90;;;;;;;27.22;46.11;99172.22;1737862;80;21302;-45
2021/06/28 10:26:21;;;;;;;3.70;3.20;;;;;;;27.17;46.29;99168.70;1710150;83;21060;-46
2021/06/28 10:28:48;;;;;;;7.40;3.35;;;;;;;27.12;46.70;99170.75;1708825;83;21129;-45
2021/06/28 10:31:14;;;;;;;3.40;2.77;;;;;;;26.74;45.81;99135.32;1749465;80;20937;-45
2021/06/28 10:33:46;;;;;;;3.58;2.98;;;;;;;26.77;46.31;99178.13;1751264;82;20977;-45
2021/06/28 10:36:14;;;;;;;3.40;3.10;;;;;;;26.53;47.06;99175.95;1745492;80;21511;-45
2021/06/28 10:38:50;;;;;;;3.20;2.90;;;;;;;26.37;48.09;99179.27;1753896;80;21078;-45
2021/06/28 10:41:39;;;;;;;5.00;3.00;;;;;;;26.34;47.97;99186.37;1762660;80;21771;-45
2021/06/28 10:44:09;;;;;;;3.98;2.62;;;;;;;26.46;48.26;99181.84;1763536;80;20982;-46
2021/06/28 10:46:39;;;;;;;2.92;2.70;;;;;;;26.76;46.86;99173.17;1772705;80;21021;-45
2021/06/28 10:49:06;;;;;;;3.58;2.83;;;;;;;27.13;46.45;99176.48;1752500;80;21361;-45
2021/06/28 10:51:45;;;;;;;3.95;2.35;;;;;;;27.45;45.06;99176.18;1769520;80;21064;-45
2021/06/28 10:54:16;;;;;;;3.12;2.50;;;;;;;27.72;43.46;99171.00;1763888;80;21132;-46
2021/06/28 10:56:46;;;;;;;3.27;2.50;;;;;;;27.80;43.28;99171.38;1771002;80;21029;-45
2021/06/28 10:59:23;;;;;;;4.35;2.95;;;;;;;27.88;43.87;99166.34;1764831;80;21538;-45
2021/06/28 11:02:01;;;;;;;3.40;2.80;;;;;;;27.98;44.45;99164.22;1739267;82;21533;-45
2021/06/28 11:04:33;;;;;;;4.05;2.90;;;;;;;28.22;44.04;99166.90;1721172;82;21084;-45
2021/06/28 11:07:08;;;;;;;5.72;2.80;;;;;;;28.36;43.58;99164.70;1705061;83;23159;-45
2021/06/28 11:09:54;;;;;;;3.00;2.70;;;;;;;28.40;42.60;99163.87;1717538;81;21041;-45
2021/06/28 11:12:30;;;;;;;3.20;2.87;;;;;;;28.30;43.01;99165.23;1707680;84;21575;-45
2021/06/28 11:15:12;;;;;;;3.12;2.83;;;;;;;28.09;43.15;99172.12;1708764;82;21092;-46
2021/06/28 11:17:55;;;;;;;3.58;2.95;;;;;;;27.97;43.72;99169.03;1679015;85;21052;-45
2021/06/28 11:20:41;;;;;;;4.78;3.58;;;;;;;27.93;43.80;99176.05;1762398;80;21079;-45
2021/06/28 11:23:19;;;;;;;5.10;3.30;;;;;;;27.97;44.85;99173.20;1765025;80;21358;-45
2021/06/28 11:25:55;;;;;;;5.50;2.80;;;;;;;28.10;43.54;99174.28;1773387;80;20981;-45
2021/06/28 11:28:35;;;;;;;2.87;2.58;;;;;;;28.10;43.42;99169.48;1768035;80;20973;-45
2021/06/28 11:31:10;;;;;;;4.90;2.80;;;;;;;28.22;42.31;99169.69;1771824;80;21084;-45
2021/06/28 11:33:48;;;;;;;5.17;3.10;;;;;;;28.33;42.46;99171.23;1773786;80;21938;-45
2021/06/28 11:36:31;;;;;;;4.70;2.92;;;;;;;28.45;42.92;99167.36;1760612;80;21109;-45
2021/06/28 11:39:00;;;;;;;4.12;2.87;;;;;;;28.70;43.40;99165.93;1691452;82;21067;-45
2021/06/28 11:41:29;;;;;;;3.22;2.90;;;;;;;28.90;42.21;99171.55;1773361;80;20998;-45
2021/06/28 11:44:01;;;;;;;4.37;2.70;;;;;;;29.12;41.93;99161.26;1774010;80;21038;-46
2021/06/28 11:46:37;;;;;;;3.02;2.72;;;;;;;29.39;40.70;99161.47;1774076;80;21738;-46